sensor_id;sensor_type;location;lat;lon;timestamp;P1;durP1;ratioP1;P2;durP2;ratioP2
77038;SDS011;65970;50.476;4.840;2023-02-13T00:02:30;29.38;;;13.35;;
77038;SDS011;65970;50.476;4.840;2023-02-13T00:07:31;25.60;;;13.68;;
77038;SDS011;65970;50.476;4.840;2023-02-13T00:12:32;25.95;;;13.88;;
77038;SDS011;65970;50.476;4.840;2023-02-13T00:17:32;29.13;;;14.23;;
77038;SDS011;65970;50.476;4.840;2023-02-13T00:22:34;26.27;;;12.35;;
77038;SDS011;65970;50.476;4.840;2023-02-13T00:27:35;28.02;;;13.10;;
77038;SDS011;65970;50.476;4.840;2023-02-13T00:32:36;21.05;;;11.52;;
77038;SDS011;65970;50.476;4.840;2023-02-13T00:37:36;22.65;;;13.02;;
77038;SDS011;65970;50.476;4.840;2023-02-13T00:42:37;21.92;;;11.60;;
77038;SDS011;65970;50.476;4.840;2023-02-13T00:47:37;16.75;;;9.95;;
77038;SDS011;65970;50.476;4.840;2023-02-13T00:52:38;16.90;;;9.68;;
77038;SDS011;65970;50.476;4.840;2023-02-13T00:57:38;15.15;;;9.52;;
77038;SDS011;65970;50.476;4.840;2023-02-13T01:02:39;14.90;;;9.35;;
77038;SDS011;65970;50.476;4.840;2023-02-13T01:07:39;15.60;;;9.63;;
77038;SDS011;65970;50.476;4.840;2023-02-13T01:12:40;12.02;;;7.30;;
77038;SDS011;65970;50.476;4.840;2023-02-13T01:17:40;15.82;;;8.82;;
77038;SDS011;65970;50.476;4.840;2023-02-13T01:22:41;14.57;;;8.30;;
77038;SDS011;65970;50.476;4.840;2023-02-13T01:27:42;14.68;;;9.38;;
77038;SDS011;65970;50.476;4.840;2023-02-13T01:32:43;14.82;;;8.77;;
77038;SDS011;65970;50.476;4.840;2023-02-13T01:37:44;15.48;;;9.35;;
77038;SDS011;65970;50.476;4.840;2023-02-13T01:42:45;13.98;;;7.47;;
77038;SDS011;65970;50.476;4.840;2023-02-13T01:47:50;14.80;;;8.63;;
77038;SDS011;65970;50.476;4.840;2023-02-13T01:58:52;14.00;;;8.27;;
77038;SDS011;65970;50.476;4.840;2023-02-13T02:03:56;14.10;;;8.32;;
77038;SDS011;65970;50.476;4.840;2023-02-13T02:09:05;12.90;;;7.25;;
77038;SDS011;65970;50.476;4.840;2023-02-13T02:14:13;14.27;;;8.45;;
77038;SDS011;65970;50.476;4.840;2023-02-13T02:19:18;13.13;;;7.72;;
77038;SDS011;65970;50.476;4.840;2023-02-13T02:35:33;11.25;;;6.60;;
77038;SDS011;65970;50.476;4.840;2023-02-13T02:40:45;11.43;;;6.90;;
77038;SDS011;65970;50.476;4.840;2023-02-13T02:46:43;9.43;;;6.07;;
77038;SDS011;65970;50.476;4.840;2023-02-13T02:56:50;9.60;;;5.88;;
77038;SDS011;65970;50.476;4.840;2023-02-13T03:01:53;7.77;;;5.37;;
77038;SDS011;65970;50.476;4.840;2023-02-13T03:06:56;10.05;;;6.05;;
77038;SDS011;65970;50.476;4.840;2023-02-13T03:11:59;11.90;;;6.53;;
77038;SDS011;65970;50.476;4.840;2023-02-13T03:17:02;8.85;;;5.85;;
77038;SDS011;65970;50.476;4.840;2023-02-13T03:33:22;9.07;;;6.30;;
77038;SDS011;65970;50.476;4.840;2023-02-13T03:49:34;9.30;;;6.30;;
77038;SDS011;65970;50.476;4.840;2023-02-13T03:54:50;9.75;;;6.40;;
77038;SDS011;65970;50.476;4.840;2023-02-13T03:59:56;8.27;;;5.85;;
77038;SDS011;65970;50.476;4.840;2023-02-13T04:10:07;8.30;;;5.45;;
77038;SDS011;65970;50.476;4.840;2023-02-13T04:15:15;10.27;;;6.05;;
77038;SDS011;65970;50.476;4.840;2023-02-13T04:20:18;8.35;;;5.47;;
77038;SDS011;65970;50.476;4.840;2023-02-13T04:25:19;8.73;;;5.30;;
77038;SDS011;65970;50.476;4.840;2023-02-13T04:30:20;10.38;;;5.68;;
77038;SDS011;65970;50.476;4.840;2023-02-13T04:35:20;7.25;;;5.05;;
77038;SDS011;65970;50.476;4.840;2023-02-13T04:40:21;9.73;;;4.75;;
77038;SDS011;65970;50.476;4.840;2023-02-13T04:45:22;8.10;;;5.53;;
77038;SDS011;65970;50.476;4.840;2023-02-13T04:50:22;6.68;;;4.72;;
77038;SDS011;65970;50.476;4.840;2023-02-13T04:55:24;8.10;;;4.07;;
77038;SDS011;65970;50.476;4.840;2023-02-13T05:00:27;9.07;;;5.67;;
77038;SDS011;65970;50.476;4.840;2023-02-13T05:05:28;8.82;;;4.88;;
77038;SDS011;65970;50.476;4.840;2023-02-13T05:10:28;8.00;;;5.07;;
77038;SDS011;65970;50.476;4.840;2023-02-13T05:15:30;10.52;;;5.78;;
77038;SDS011;65970;50.476;4.840;2023-02-13T05:20:30;9.00;;;5.50;;
77038;SDS011;65970;50.476;4.840;2023-02-13T05:25:31;8.07;;;5.13;;
77038;SDS011;65970;50.476;4.840;2023-02-13T05:30:33;8.85;;;5.63;;
77038;SDS011;65970;50.476;4.840;2023-02-13T05:35:33;6.03;;;4.50;;
77038;SDS011;65970;50.476;4.840;2023-02-13T05:40:34;7.85;;;5.35;;
77038;SDS011;65970;50.476;4.840;2023-02-13T05:45:34;8.23;;;4.63;;
77038;SDS011;65970;50.476;4.840;2023-02-13T05:50:35;8.13;;;5.13;;
77038;SDS011;65970;50.476;4.840;2023-02-13T05:55:35;9.70;;;5.43;;
77038;SDS011;65970;50.476;4.840;2023-02-13T06:00:38;8.90;;;5.38;;
77038;SDS011;65970;50.476;4.840;2023-02-13T06:05:38;8.23;;;4.93;;
77038;SDS011;65970;50.476;4.840;2023-02-13T06:10:39;10.52;;;5.55;;
77038;SDS011;65970;50.476;4.840;2023-02-13T06:15:39;6.47;;;4.32;;
77038;SDS011;65970;50.476;4.840;2023-02-13T06:20:40;8.07;;;5.07;;
77038;SDS011;65970;50.476;4.840;2023-02-13T06:25:41;8.77;;;4.95;;
77038;SDS011;65970;50.476;4.840;2023-02-13T06:30:41;6.07;;;3.95;;
77038;SDS011;65970;50.476;4.840;2023-02-13T06:35:42;8.48;;;4.80;;
77038;SDS011;65970;50.476;4.840;2023-02-13T06:40:42;7.32;;;4.97;;
77038;SDS011;65970;50.476;4.840;2023-02-13T06:45:44;5.65;;;3.88;;
77038;SDS011;65970;50.476;4.840;2023-02-13T06:50:45;6.38;;;4.40;;
77038;SDS011;65970;50.476;4.840;2023-02-13T06:55:45;9.02;;;4.90;;
77038;SDS011;65970;50.476;4.840;2023-02-13T07:00:46;7.65;;;5.05;;
77038;SDS011;65970;50.476;4.840;2023-02-13T07:05:46;10.35;;;5.28;;
77038;SDS011;65970;50.476;4.840;2023-02-13T07:10:47;9.07;;;5.07;;
77038;SDS011;65970;50.476;4.840;2023-02-13T07:15:47;7.22;;;5.13;;
77038;SDS011;65970;50.476;4.840;2023-02-13T07:20:48;7.95;;;4.85;;
77038;SDS011;65970;50.476;4.840;2023-02-13T07:25:49;8.25;;;5.65;;
77038;SDS011;65970;50.476;4.840;2023-02-13T07:30:49;11.32;;;5.30;;
77038;SDS011;65970;50.476;4.840;2023-02-13T07:35:50;6.53;;;4.72;;
77038;SDS011;65970;50.476;4.840;2023-02-13T07:40:51;7.53;;;4.80;;
77038;SDS011;65970;50.476;4.840;2023-02-13T07:45:52;6.32;;;4.28;;
77038;SDS011;65970;50.476;4.840;2023-02-13T07:50:54;9.13;;;5.45;;
77038;SDS011;65970;50.476;4.840;2023-02-13T07:56:03;9.32;;;4.78;;
77038;SDS011;65970;50.476;4.840;2023-02-13T08:01:06;6.88;;;4.53;;
77038;SDS011;65970;50.476;4.840;2023-02-13T08:06:07;10.07;;;6.15;;
77038;SDS011;65970;50.476;4.840;2023-02-13T08:11:22;6.72;;;5.18;;
77038;SDS011;65970;50.476;4.840;2023-02-13T08:21:33;8.98;;;4.93;;
77038;SDS011;65970;50.476;4.840;2023-02-13T08:26:33;7.82;;;5.25;;
77038;SDS011;65970;50.476;4.840;2023-02-13T08:31:34;8.35;;;5.10;;
77038;SDS011;65970;50.476;4.840;2023-02-13T08:36:35;10.55;;;4.88;;
77038;SDS011;65970;50.476;4.840;2023-02-13T08:41:35;10.50;;;6.90;;
77038;SDS011;65970;50.476;4.840;2023-02-13T08:46:36;12.30;;;6.90;;
77038;SDS011;65970;50.476;4.840;2023-02-13T08:51:36;12.25;;;6.55;;
77038;SDS011;65970;50.476;4.840;2023-02-13T08:56:37;11.35;;;6.05;;
77038;SDS011;65970;50.476;4.840;2023-02-13T09:01:37;14.32;;;6.20;;
77038;SDS011;65970;50.476;4.840;2023-02-13T09:06:38;13.23;;;7.28;;
77038;SDS011;65970;50.476;4.840;2023-02-13T09:11:39;11.60;;;6.82;;
77038;SDS011;65970;50.476;4.840;2023-02-13T09:16:39;11.13;;;6.50;;
77038;SDS011;65970;50.476;4.840;2023-02-13T09:21:40;10.60;;;7.13;;
77038;SDS011;65970;50.476;4.840;2023-02-13T09:26:40;13.70;;;7.00;;
77038;SDS011;65970;50.476;4.840;2023-02-13T09:31:41;11.88;;;6.22;;
77038;SDS011;65970;50.476;4.840;2023-02-13T09:36:41;11.82;;;7.38;;
77038;SDS011;65970;50.476;4.840;2023-02-13T09:41:42;10.70;;;6.70;;
77038;SDS011;65970;50.476;4.840;2023-02-13T09:46:44;18.02;;;7.82;;
77038;SDS011;65970;50.476;4.840;2023-02-13T09:51:45;12.98;;;5.28;;
77038;SDS011;65970;50.476;4.840;2023-02-13T09:57:02;12.20;;;5.97;;
77038;SDS011;65970;50.476;4.840;2023-02-13T10:07:42;11.65;;;6.28;;
77038;SDS011;65970;50.476;4.840;2023-02-13T10:18:52;10.95;;;6.15;;
77038;SDS011;65970;50.476;4.840;2023-02-13T10:23:57;17.40;;;7.07;;
77038;SDS011;65970;50.476;4.840;2023-02-13T10:29:04;10.55;;;6.55;;
77038;SDS011;65970;50.476;4.840;2023-02-13T10:34:10;14.35;;;6.93;;
77038;SDS011;65970;50.476;4.840;2023-02-13T10:39:24;10.88;;;7.15;;
77038;SDS011;65970;50.476;4.840;2023-02-13T12:33:26;6.68;;;4.13;;
77038;SDS011;65970;50.476;4.840;2023-02-13T14:07:14;11.18;;;4.70;;
77038;SDS011;65970;50.476;4.840;2023-02-13T14:22:45;9.23;;;4.78;;
77038;SDS011;65970;50.476;4.840;2023-02-13T14:27:54;10.38;;;4.60;;
77038;SDS011;65970;50.476;4.840;2023-02-13T14:33:19;6.88;;;4.35;;
77038;SDS011;65970;50.476;4.840;2023-02-13T14:38:34;8.50;;;5.25;;
77038;SDS011;65970;50.476;4.840;2023-02-13T14:48:54;7.07;;;4.38;;
77038;SDS011;65970;50.476;4.840;2023-02-13T14:54:41;4.97;;;4.05;;
77038;SDS011;65970;50.476;4.840;2023-02-13T14:59:29;7.78;;;5.10;;
77038;SDS011;65970;50.476;4.840;2023-02-13T15:04:37;6.97;;;4.93;;
77038;SDS011;65970;50.476;4.840;2023-02-13T15:09:51;7.40;;;4.18;;
77038;SDS011;65970;50.476;4.840;2023-02-13T15:15:26;8.07;;;4.22;;
77038;SDS011;65970;50.476;4.840;2023-02-13T15:20:32;9.55;;;5.13;;
77038;SDS011;65970;50.476;4.840;2023-02-13T15:30:38;8.57;;;3.75;;
77038;SDS011;65970;50.476;4.840;2023-02-13T15:35:39;5.68;;;3.97;;
77038;SDS011;65970;50.476;4.840;2023-02-13T15:40:40;7.22;;;4.75;;
77038;SDS011;65970;50.476;4.840;2023-02-13T15:45:42;7.68;;;4.00;;
77038;SDS011;65970;50.476;4.840;2023-02-13T15:50:43;7.90;;;4.28;;
77038;SDS011;65970;50.476;4.840;2023-02-13T15:55:54;8.43;;;4.63;;
77038;SDS011;65970;50.476;4.840;2023-02-13T16:01:07;6.88;;;4.88;;
77038;SDS011;65970;50.476;4.840;2023-02-13T16:06:13;8.38;;;4.65;;
77038;SDS011;65970;50.476;4.840;2023-02-13T16:17:16;9.40;;;5.20;;
77038;SDS011;65970;50.476;4.840;2023-02-13T16:22:01;8.52;;;5.18;;
77038;SDS011;65970;50.476;4.840;2023-02-13T16:27:14;6.50;;;4.18;;
77038;SDS011;65970;50.476;4.840;2023-02-13T16:32:18;6.95;;;4.68;;
77038;SDS011;65970;50.476;4.840;2023-02-13T16:37:32;8.98;;;5.50;;
77038;SDS011;65970;50.476;4.840;2023-02-13T16:42:32;11.10;;;6.90;;
77038;SDS011;65970;50.476;4.840;2023-02-13T16:47:33;11.63;;;7.43;;
77038;SDS011;65970;50.476;4.840;2023-02-13T16:52:34;12.50;;;6.10;;
77038;SDS011;65970;50.476;4.840;2023-02-13T16:57:36;11.13;;;6.43;;
77038;SDS011;65970;50.476;4.840;2023-02-13T17:02:37;10.38;;;6.10;;
77038;SDS011;65970;50.476;4.840;2023-02-13T17:12:40;7.72;;;5.22;;
77038;SDS011;65970;50.476;4.840;2023-02-13T17:17:43;9.60;;;5.97;;
77038;SDS011;65970;50.476;4.840;2023-02-13T17:22:46;8.60;;;5.60;;
77038;SDS011;65970;50.476;4.840;2023-02-13T17:27:53;70.82;;;41.53;;
77038;SDS011;65970;50.476;4.840;2023-02-13T17:32:57;70.05;;;31.67;;
77038;SDS011;65970;50.476;4.840;2023-02-13T17:37:58;32.40;;;15.18;;
77038;SDS011;65970;50.476;4.840;2023-02-13T17:42:59;29.83;;;16.23;;
77038;SDS011;65970;50.476;4.840;2023-02-13T17:47:59;14.18;;;8.95;;
77038;SDS011;65970;50.476;4.840;2023-02-13T17:53:00;12.02;;;7.80;;
77038;SDS011;65970;50.476;4.840;2023-02-13T18:03:04;11.05;;;6.32;;
77038;SDS011;65970;50.476;4.840;2023-02-13T18:08:04;10.88;;;6.03;;
77038;SDS011;65970;50.476;4.840;2023-02-13T18:13:05;9.75;;;6.10;;
77038;SDS011;65970;50.476;4.840;2023-02-13T18:18:06;12.30;;;6.50;;
77038;SDS011;65970;50.476;4.840;2023-02-13T18:23:07;9.38;;;6.18;;
77038;SDS011;65970;50.476;4.840;2023-02-13T18:28:08;15.70;;;9.02;;
77038;SDS011;65970;50.476;4.840;2023-02-13T18:33:08;18.15;;;10.98;;
77038;SDS011;65970;50.476;4.840;2023-02-13T18:38:09;19.20;;;11.93;;
77038;SDS011;65970;50.476;4.840;2023-02-13T18:43:10;16.30;;;7.95;;
77038;SDS011;65970;50.476;4.840;2023-02-13T18:48:11;10.20;;;6.00;;
77038;SDS011;65970;50.476;4.840;2023-02-13T18:53:11;9.57;;;6.43;;
77038;SDS011;65970;50.476;4.840;2023-02-13T18:58:12;10.98;;;7.32;;
77038;SDS011;65970;50.476;4.840;2023-02-13T19:03:12;9.63;;;6.10;;
77038;SDS011;65970;50.476;4.840;2023-02-13T19:08:13;11.13;;;6.25;;
77038;SDS011;65970;50.476;4.840;2023-02-13T19:13:13;8.07;;;5.78;;
77038;SDS011;65970;50.476;4.840;2023-02-13T19:18:14;11.02;;;7.28;;
77038;SDS011;65970;50.476;4.840;2023-02-13T19:23:15;8.25;;;6.50;;
77038;SDS011;65970;50.476;4.840;2023-02-13T19:28:15;13.02;;;7.47;;
77038;SDS011;65970;50.476;4.840;2023-02-13T19:33:16;21.55;;;10.95;;
77038;SDS011;65970;50.476;4.840;2023-02-13T19:38:16;16.90;;;10.18;;
77038;SDS011;65970;50.476;4.840;2023-02-13T19:43:17;19.83;;;12.10;;
77038;SDS011;65970;50.476;4.840;2023-02-13T19:48:17;17.83;;;10.98;;
77038;SDS011;65970;50.476;4.840;2023-02-13T19:53:18;16.65;;;9.68;;
77038;SDS011;65970;50.476;4.840;2023-02-13T19:58:18;14.68;;;7.85;;
77038;SDS011;65970;50.476;4.840;2023-02-13T20:03:19;20.40;;;10.77;;
77038;SDS011;65970;50.476;4.840;2023-02-13T20:08:20;14.23;;;9.10;;
77038;SDS011;65970;50.476;4.840;2023-02-13T20:13:21;10.25;;;7.55;;
77038;SDS011;65970;50.476;4.840;2023-02-13T20:18:21;15.93;;;9.10;;
77038;SDS011;65970;50.476;4.840;2023-02-13T20:23:22;13.82;;;8.63;;
77038;SDS011;65970;50.476;4.840;2023-02-13T20:28:22;12.50;;;8.93;;
77038;SDS011;65970;50.476;4.840;2023-02-13T20:33:23;12.98;;;7.75;;
77038;SDS011;65970;50.476;4.840;2023-02-13T20:38:23;15.70;;;8.63;;
77038;SDS011;65970;50.476;4.840;2023-02-13T20:43:24;15.20;;;8.13;;
77038;SDS011;65970;50.476;4.840;2023-02-13T20:48:24;10.95;;;7.45;;
77038;SDS011;65970;50.476;4.840;2023-02-13T20:53:25;14.70;;;8.60;;
77038;SDS011;65970;50.476;4.840;2023-02-13T20:58:27;19.60;;;11.82;;
77038;SDS011;65970;50.476;4.840;2023-02-13T21:03:28;38.72;;;19.98;;
77038;SDS011;65970;50.476;4.840;2023-02-13T21:08:29;146.57;;;74.00;;
77038;SDS011;65970;50.476;4.840;2023-02-13T21:13:29;144.98;;;70.03;;
77038;SDS011;65970;50.476;4.840;2023-02-13T21:18:30;45.60;;;26.63;;
77038;SDS011;65970;50.476;4.840;2023-02-13T21:23:31;16.02;;;12.10;;
77038;SDS011;65970;50.476;4.840;2023-02-13T21:28:32;14.52;;;8.93;;
77038;SDS011;65970;50.476;4.840;2023-02-13T21:33:33;14.13;;;7.95;;
77038;SDS011;65970;50.476;4.840;2023-02-13T21:38:35;13.18;;;7.80;;
77038;SDS011;65970;50.476;4.840;2023-02-13T21:43:36;13.77;;;8.27;;
77038;SDS011;65970;50.476;4.840;2023-02-13T21:48:38;11.80;;;8.90;;
77038;SDS011;65970;50.476;4.840;2023-02-13T21:53:39;11.70;;;8.23;;
77038;SDS011;65970;50.476;4.840;2023-02-13T21:58:40;14.88;;;8.57;;
77038;SDS011;65970;50.476;4.840;2023-02-13T22:03:41;13.23;;;8.20;;
77038;SDS011;65970;50.476;4.840;2023-02-13T22:08:42;13.23;;;8.68;;
77038;SDS011;65970;50.476;4.840;2023-02-13T22:13:43;16.52;;;7.90;;
77038;SDS011;65970;50.476;4.840;2023-02-13T22:18:44;12.80;;;7.88;;
77038;SDS011;65970;50.476;4.840;2023-02-13T22:23:44;13.27;;;8.80;;
77038;SDS011;65970;50.476;4.840;2023-02-13T22:28:46;13.35;;;8.30;;
77038;SDS011;65970;50.476;4.840;2023-02-13T22:33:46;12.25;;;8.10;;
77038;SDS011;65970;50.476;4.840;2023-02-13T22:38:48;13.95;;;6.78;;
77038;SDS011;65970;50.476;4.840;2023-02-13T22:43:49;15.77;;;7.85;;
77038;SDS011;65970;50.476;4.840;2023-02-13T22:48:51;15.27;;;8.23;;
77038;SDS011;65970;50.476;4.840;2023-02-13T22:53:52;11.90;;;7.43;;
77038;SDS011;65970;50.476;4.840;2023-02-13T22:58:54;15.60;;;7.63;;
77038;SDS011;65970;50.476;4.840;2023-02-13T23:03:55;14.65;;;9.18;;
77038;SDS011;65970;50.476;4.840;2023-02-13T23:08:56;15.98;;;8.20;;
77038;SDS011;65970;50.476;4.840;2023-02-13T23:13:57;14.10;;;8.77;;
77038;SDS011;65970;50.476;4.840;2023-02-13T23:18:58;13.20;;;8.13;;
77038;SDS011;65970;50.476;4.840;2023-02-13T23:23:58;11.02;;;8.02;;
77038;SDS011;65970;50.476;4.840;2023-02-13T23:28:59;10.30;;;7.22;;
77038;SDS011;65970;50.476;4.840;2023-02-13T23:33:59;13.32;;;8.40;;
77038;SDS011;65970;50.476;4.840;2023-02-13T23:39:00;13.48;;;8.57;;
77038;SDS011;65970;50.476;4.840;2023-02-13T23:44:01;12.57;;;7.65;;
77038;SDS011;65970;50.476;4.840;2023-02-13T23:49:01;15.45;;;7.72;;
77038;SDS011;65970;50.476;4.840;2023-02-13T23:54:02;12.48;;;6.80;;
77038;SDS011;65970;50.476;4.840;2023-02-13T23:59:02;14.63;;;6.97;;
